Time;durP1;ratioP1;P1;durP2;ratioP2;P2;SDS_P1;SDS_P2;PMS_P1;PMS_P2;Temp;Humidity;BMP_temperature;BMP_pressure;BME280_temperature;BME280_humidity;BME280_pressure;Samples;Min_cycle;Max_cycle;Signal;HPM_P1;HPM_P2
2023/03/17 00:01:23;;;;;;;3.97;2.70;;;5.30;1.00;;;;;;5087981;28;20480;-75
2023/03/17 00:03:50;;;;;;;3.80;3.40;;;5.60;99.90;;;;;;5085712;28;20430;-72
2023/03/17 00:06:23;;;;;;;5.23;3.63;;;5.60;1.00;;;;;;5081873;28;20434;-75
2023/03/17 00:08:50;;;;;;;2.53;2.33;;;5.60;1.00;;;;;;5075677;28;20479;-72
2023/03/17 00:11:18;;;;;;;4.13;2.23;;;5.60;1.00;;;;;;5072237;28;20956;-76
2023/03/17 00:13:46;;;;;;;4.50;2.53;;;5.60;1.00;;;;;;5072422;28;20449;-76
2023/03/17 00:16:18;;;;;;;5.13;2.70;;;5.40;99.90;;;;;;5070920;28;20954;-76
2023/03/17 00:18:46;;;;;;;7.30;2.90;;;5.30;99.90;;;;;;5059373;28;20460;-76
2023/03/17 00:21:14;;;;;;;5.53;3.50;;;5.50;99.90;;;;;;5071229;28;20491;-76
2023/03/17 00:23:41;;;;;;;3.97;3.57;;;5.50;1.00;;;;;;5071942;28;20492;-76
2023/03/17 00:26:11;;;;;;;4.77;2.50;;;5.60;1.00;;;;;;5069940;28;20947;-76
2023/03/17 00:28:38;;;;;;;2.37;2.17;;;5.50;1.00;;;;;;5071932;28;20809;-76
2023/03/17 00:31:15;;;;;;;2.60;2.33;;;5.40;1.00;;;;;;5071183;28;20452;-76
2023/03/17 00:33:43;;;;;;;3.73;1.93;;;5.60;4.70;;;;;;5071737;28;20526;-76
2023/03/17 00:36:13;;;;;;;3.57;2.67;;;5.40;26.60;;;;;;5070561;28;20685;-76
2023/03/17 00:38:40;;;;;;;2.77;1.70;;;5.40;99.90;;;;;;5071425;28;20974;-76
2023/03/17 00:41:08;;;;;;;2.63;2.40;;;5.40;1.00;;;;;;5070819;28;20481;-77
2023/03/17 00:43:35;;;;;;;3.50;2.33;;;5.40;99.90;;;;;;5071253;28;20924;-76
2023/03/17 00:46:02;;;;;;;3.77;2.20;;;5.40;1.00;;;;;;5070542;28;20830;-76
2023/03/17 00:48:30;;;;;;;8.23;2.57;;;5.40;1.00;;;;;;5071320;28;20797;-76
2023/03/17 00:50:57;;;;;;;5.63;3.10;;;5.50;99.90;;;;;;5070573;28;20433;-75
2023/03/17 00:53:24;;;;;;;4.73;2.47;;;5.60;99.80;;;;;;5071626;28;20452;-75
2023/03/17 00:55:51;;;;;;;3.43;1.73;;;5.70;1.00;;;;;;5070423;28;20464;-75
2023/03/17 00:58:23;;;;;;;3.23;2.43;;;5.60;1.00;;;;;;5071529;28;20764;-76
2023/03/17 01:00:50;;;;;;;3.93;2.80;;;5.70;1.00;;;;;;5070152;28;20434;-72
2023/03/17 01:03:18;;;;;;;3.67;2.10;;;5.70;1.00;;;;;;5071302;28;20800;-75
2023/03/17 01:05:46;;;;;;;3.20;2.10;;;5.70;1.00;;;;;;5071284;28;20444;-75
2023/03/17 01:08:14;;;;;;;4.50;2.67;;;5.80;1.00;;;;;;5070689;28;20533;-76
2023/03/17 01:10:41;;;;;;;4.00;2.83;;;5.80;1.00;;;;;;5071335;28;20445;-76
2023/03/17 01:13:11;;;;;;;4.63;2.40;;;5.90;1.00;;;;;;5070169;28;20441;-75
2023/03/17 01:15:41;;;;;;;3.97;2.80;;;5.90;99.90;;;;;;5071196;28;20444;-75
2023/03/17 01:18:11;;;;;;;3.00;2.43;;;5.80;99.90;;;;;;5070438;28;20437;-76
2023/03/17 01:20:39;;;;;;;2.60;2.40;;;5.90;99.90;;;;;;5071292;28;20442;-76
2023/03/17 01:23:08;;;;;;;5.20;3.17;;;5.90;99.90;;;;;;5070514;28;20495;-76
2023/03/17 01:25:36;;;;;;;3.40;3.10;;;6.00;99.90;;;;;;5071150;28;20437;-76
2023/03/17 01:28:03;;;;;;;5.20;2.87;;;5.90;99.90;;;;;;5070379;28;20536;-76
2023/03/17 01:30:33;;;;;;;3.57;1.97;;;5.90;99.90;;;;;;5071121;28;20449;-76
2023/03/17 01:33:00;;;;;;;2.87;2.23;;;6.10;99.90;;;;;;5070436;28;20940;-75
2023/03/17 01:35:30;;;;;;;2.10;1.90;;;6.10;99.90;;;;;;5071111;28;20441;-76
2023/03/17 01:37:57;;;;;;;4.50;2.60;;;6.10;99.90;;;;;;5072772;28;20448;-75
2023/03/17 01:40:28;;;;;;;4.00;2.20;;;6.10;99.90;;;;;;5074600;28;20452;-76
2023/03/17 01:43:00;;;;;;;3.23;2.80;;;6.10;99.90;;;;;;5074196;28;20815;-76
2023/03/17 01:46:13;;;;;;;6.90;2.63;;;6.10;99.90;;;;;;5074896;28;20810;-76
2023/03/17 01:48:44;;;;;;;3.90;2.33;;;6.30;99.90;;;;;;5074728;28;20453;-76
2023/03/17 01:51:15;;;;;;;4.30;2.60;;;6.20;99.90;;;;;;5073969;28;20493;-76
2023/03/17 01:53:44;;;;;;;2.30;1.93;;;6.10;99.90;;;;;;5074405;28;20487;-76
2023/03/17 01:56:12;;;;;;;3.50;2.37;;;6.10;99.90;;;;;;5073433;28;20448;-76
2023/03/17 01:58:39;;;;;;;4.60;2.73;;;6.00;99.90;;;;;;5074326;28;20535;-76
2023/03/17 02:01:06;;;;;;;3.60;2.73;;;6.20;99.90;;;;;;5073851;28;20433;-76
2023/03/17 02:03:33;;;;;;;2.23;2.03;;;6.20;99.90;;;;;;5074269;28;20771;-76
2023/03/17 02:06:01;;;;;;;9.80;2.60;;;6.20;99.90;;;;;;5073547;28;20447;-76
2023/03/17 02:08:28;;;;;;;4.57;2.67;;;6.00;99.90;;;;;;5074237;28;20453;-76
2023/03/17 02:10:57;;;;;;;3.23;2.63;;;5.90;1.00;;;;;;5073794;28;20442;-75
2023/03/17 02:13:25;;;;;;;3.00;2.17;;;5.90;1.00;;;;;;5073766;28;20920;-76
2023/03/17 02:15:53;;;;;;;6.40;2.37;;;5.90;1.00;;;;;;5073236;28;20867;-75
2023/03/17 02:18:22;;;;;;;3.60;2.47;;;6.10;1.00;;;;;;5074071;28;20503;-74
2023/03/17 02:21:37;;;;;;;5.63;3.03;;;6.00;1.00;;;;;;5074351;28;20442;-76
2023/03/17 02:24:10;;;;;;;5.27;2.47;;;6.00;1.00;;;;;;5073588;28;20452;-76
2023/03/17 02:26:38;;;;;;;3.10;2.80;;;5.90;1.00;;;;;;5073723;28;20437;-76
2023/03/17 02:29:05;;;;;;;3.10;2.27;;;5.90;1.00;;;;;;5073422;28;20437;-76
2023/03/17 02:31:33;;;;;;;3.23;2.10;;;5.90;99.90;;;;;;5073564;28;20467;-76
2023/03/17 02:34:00;;;;;;;2.70;2.27;;;5.90;1.00;;;;;;5073248;28;20441;-76
2023/03/17 02:36:27;;;;;;;3.60;3.20;;;5.90;1.00;;;;;;5073144;28;20445;-75
2023/03/17 02:38:56;;;;;;;2.83;2.40;;;5.90;1.00;;;;;;5073378;28;20438;-76
2023/03/17 02:41:23;;;;;;;2.57;1.90;;;6.00;1.00;;;;;;5060360;28;20833;-75
2023/03/17 02:43:50;;;;;;;2.43;1.60;;;6.10;99.90;;;;;;5073245;28;20446;-72
2023/03/17 02:46:18;;;;;;;2.30;2.00;;;6.20;99.90;;;;;;5073454;28;20476;-76
2023/03/17 02:48:46;;;;;;;2.93;2.33;;;6.10;99.90;;;;;;5072706;28;20974;-76
2023/03/17 02:51:12;;;;;;;2.67;2.47;;;6.10;99.90;;;;;;5072684;28;20487;-75
2023/03/17 02:53:39;;;;;;;2.90;2.60;;;5.90;99.90;;;;;;5073111;28;20995;-76
2023/03/17 02:56:08;;;;;;;3.23;2.00;;;5.80;1.00;;;;;;5072366;28;20449;-76
2023/03/17 02:58:35;;;;;;;2.40;2.20;;;5.90;1.00;;;;;;5073089;28;20445;-76
2023/03/17 03:01:02;;;;;;;3.50;2.60;;;5.90;1.00;;;;;;5072793;28;20441;-76
2023/03/17 03:03:29;;;;;;;4.53;2.90;;;6.00;1.00;;;;;;5072399;28;20483;-76
2023/03/17 03:05:57;;;;;;;5.00;2.50;;;5.80;1.00;;;;;;5072117;28;20479;-76
2023/03/17 03:08:25;;;;;;;2.50;2.03;;;5.70;99.90;;;;;;5073051;28;20448;-76
2023/03/17 03:10:51;;;;;;;4.07;1.63;;;5.60;99.90;;;;;;5072286;28;20445;-76
2023/03/17 03:13:20;;;;;;;1.87;1.60;;;5.60;99.90;;;;;;5072815;28;20441;-76
2023/03/17 03:15:47;;;;;;;5.23;2.63;;;5.60;99.90;;;;;;5072994;28;20438;-76
2023/03/17 03:18:14;;;;;;;3.90;2.43;;;5.70;99.90;;;;;;5072270;28;20447;-76
2023/03/17 03:20:42;;;;;;;2.97;2.00;;;5.80;40.90;;;;;;5072862;28;20445;-76
2023/03/17 03:23:09;;;;;;;4.33;3.30;;;5.60;91.50;;;;;;5071909;28;20480;-76
2023/03/17 03:25:36;;;;;;;3.00;2.60;;;5.50;99.90;;;;;;5072568;28;20500;-76
2023/03/17 03:28:03;;;;;;;2.80;2.37;;;5.30;1.00;;;;;;5071931;28;20444;-76
2023/03/17 03:30:32;;;;;;;2.97;1.83;;;5.50;1.00;;;;;;5072911;28;20442;-75
2023/03/17 03:32:59;;;;;;;2.37;1.70;;;5.60;38.00;;;;;;5072028;28;20526;-76
2023/03/17 03:35:26;;;;;;;2.53;1.80;;;5.60;1.00;;;;;;5072357;28;20441;-75
2023/03/17 03:37:53;;;;;;;3.83;2.93;;;5.50;99.90;;;;;;5071849;28;20442;-75
2023/03/17 03:40:20;;;;;;;2.33;1.93;;;5.50;99.90;;;;;;5072557;28;20873;-74
2023/03/17 03:42:47;;;;;;;3.27;1.60;;;5.50;99.90;;;;;;5072544;28;20509;-76
2023/03/17 03:45:14;;;;;;;4.43;2.73;;;5.40;1.00;;;;;;5071521;28;20476;-76
2023/03/17 03:47:42;;;;;;;2.90;2.60;;;5.50;99.90;;;;;;5072034;28;20452;-75
2023/03/17 03:50:10;;;;;;;2.67;1.77;;;5.40;99.90;;;;;;5071545;28;20445;-76
2023/03/17 03:52:37;;;;;;;3.83;2.10;;;5.30;1.00;;;;;;5072481;28;20437;-76
2023/03/17 03:55:05;;;;;;;2.50;2.20;;;5.40;1.00;;;;;;5071997;28;20471;-76
2023/03/17 03:57:32;;;;;;;3.27;2.13;;;5.40;1.00;;;;;;5071914;28;20473;-76
2023/03/17 03:59:59;;;;;;;5.90;2.30;;;5.40;1.00;;;;;;5070700;28;20452;-76
2023/03/17 04:02:25;;;;;;;4.53;2.80;;;5.30;1.00;;;;;;5072068;28;20558;-76
2023/03/17 04:04:54;;;;;;;3.23;1.97;;;5.30;1.00;;;;;;5071401;28;20438;-74
2023/03/17 04:07:21;;;;;;;2.53;2.30;;;5.20;99.90;;;;;;5065503;28;20915;-75
2023/03/17 04:09:48;;;;;;;3.40;2.97;;;5.10;99.90;;;;;;5071931;28;20979;-76
2023/03/17 04:12:15;;;;;;;5.60;2.37;;;5.10;1.00;;;;;;5072510;28;20511;-76
2023/03/17 04:14:43;;;;;;;2.97;2.10;;;5.00;99.90;;;;;;5072433;28;20445;-76
2023/03/17 04:17:10;;;;;;;2.30;2.10;;;4.90;99.90;;;;;;5072187;28;20681;-76
2023/03/17 04:19:37;;;;;;;2.77;1.90;;;4.80;99.90;;;;;;5073375;28;20448;-76
2023/03/17 04:22:07;;;;;;;3.37;3.07;;;5.00;1.00;;;;;;5073894;28;20437;-76
2023/03/17 04:24:35;;;;;;;4.53;1.80;;;5.00;99.90;;;;;;5085332;28;20465;-76
2023/03/17 04:27:02;;;;;;;2.87;2.03;;;5.00;99.90;;;;;;5091282;28;20440;-75
2023/03/17 04:29:30;;;;;;;2.50;2.30;;;4.70;1.00;;;;;;5093308;28;20524;-75
2023/03/17 04:31:56;;;;;;;3.30;1.97;;;4.70;1.00;;;;;;5092184;28;20500;-75
2023/03/17 04:34:23;;;;;;;2.20;2.00;;;4.90;99.90;;;;;;5093150;28;20442;-75
2023/03/17 04:36:50;;;;;;;1.57;1.40;;;4.90;99.90;;;;;;5090961;28;20467;-72
2023/03/17 04:39:19;;;;;;;2.70;1.80;;;5.00;1.00;;;;;;5089801;28;20449;-76
2023/03/17 04:41:46;;;;;;;5.50;2.20;;;5.00;99.90;;;;;;5076636;28;20491;-76
2023/03/17 04:44:13;;;;;;;4.13;2.30;;;5.00;1.00;;;;;;5071408;28;20546;-76
2023/03/17 04:46:39;;;;;;;2.10;1.70;;;5.00;99.90;;;;;;5071623;28;20499;-76
2023/03/17 04:49:07;;;;;;;2.97;2.00;;;4.90;1.00;;;;;;5071137;28;20464;-76
2023/03/17 04:51:34;;;;;;;2.97;2.67;;;5.00;1.00;;;;;;5071714;28;20531;-76
2023/03/17 04:54:01;;;;;;;3.17;2.20;;;4.90;1.00;;;;;;5071197;28;20440;-76
2023/03/17 04:56:29;;;;;;;5.07;2.73;;;4.70;1.00;;;;;;5071160;28;20471;-76
2023/03/17 04:58:56;;;;;;;2.80;1.77;;;4.80;1.00;;;;;;5071187;28;20444;-76
2023/03/17 05:01:23;;;;;;;7.80;2.93;;;4.80;1.00;;;;;;5071531;28;20778;-76
2023/03/17 05:03:50;;;;;;;3.93;1.97;;;4.60;50.90;;;;;;5071338;28;20481;-76
2023/03/17 05:06:17;;;;;;;2.27;2.07;;;4.50;6.10;;;;;;5071186;28;20469;-76
2023/03/17 05:08:44;;;;;;;2.00;1.70;;;4.40;99.90;;;;;;5071363;28;20793;-76
2023/03/17 05:11:11;;;;;;;2.40;1.90;;;4.40;99.90;;;;;;5071060;28;20454;-76
2023/03/17 05:13:40;;;;;;;3.73;2.00;;;4.40;99.90;;;;;;5075476;28;20872;-77
2023/03/17 05:16:09;;;;;;;5.40;2.07;;;4.50;1.00;;;;;;5074280;28;20443;-76
2023/03/17 05:18:37;;;;;;;2.53;1.80;;;4.70;1.00;;;;;;5075267;28;20432;-76
2023/03/17 05:21:05;;;;;;;2.33;2.00;;;4.60;99.90;;;;;;5074852;28;20465;-76
2023/03/17 05:23:32;;;;;;;8.20;3.00;;;4.60;99.90;;;;;;5075151;28;20474;-76
2023/03/17 05:25:59;;;;;;;3.37;3.07;;;4.80;99.90;;;;;;5074354;28;20465;-76
2023/03/17 05:28:26;;;;;;;3.33;2.40;;;4.50;99.90;;;;;;5061773;28;20449;-75
2023/03/17 05:30:55;;;;;;;7.43;2.23;;;4.30;66.80;;;;;;5074246;28;20943;-76
2023/03/17 05:33:22;;;;;;;2.57;1.73;;;4.20;99.90;;;;;;5061880;28;20443;-75
2023/03/17 05:35:49;;;;;;;3.00;2.43;;;4.10;1.00;;;;;;5074715;28;20445;-76
2023/03/17 05:38:15;;;;;;;4.93;2.90;;;4.30;99.90;;;;;;5075170;28;20437;-76
2023/03/17 05:40:43;;;;;;;3.30;2.20;;;4.30;99.90;;;;;;5074906;28;20452;-76
2023/03/17 05:43:10;;;;;;;4.03;3.20;;;4.40;1.00;;;;;;5074202;28;20965;-76
2023/03/17 05:45:38;;;;;;;3.10;2.00;;;4.50;1.00;;;;;;5074277;28;20493;-76
2023/03/17 05:48:06;;;;;;;2.20;1.87;;;4.60;99.90;;;;;;5074305;28;20509;-77
2023/03/17 05:50:33;;;;;;;3.83;2.67;;;4.70;1.00;;;;;;5074503;28;20795;-76
2023/03/17 05:53:00;;;;;;;1.33;1.23;;;4.70;1.00;;;;;;5073877;28;20454;-76
2023/03/17 05:55:27;;;;;;;2.53;1.77;;;4.50;1.00;;;;;;5074203;28;20790;-76
2023/03/17 05:57:54;;;;;;;2.57;1.43;;;4.70;1.00;;;;;;5074161;28;20435;-76
2023/03/17 06:00:22;;;;;;;3.03;2.40;;;4.60;1.00;;;;;;5074203;28;20910;-75
2023/03/17 06:02:49;;;;;;;1.83;1.43;;;4.60;19.40;;;;;;5074744;28;20836;-76
2023/03/17 06:05:18;;;;;;;1.77;1.40;;;4.70;99.90;;;;;;5074069;28;20443;-76
2023/03/17 06:07:45;;;;;;;1.63;1.37;;;4.80;1.00;;;;;;5074305;28;20444;-76
2023/03/17 06:10:12;;;;;;;3.53;1.37;;;4.60;1.00;;;;;;5073593;28;20444;-77
2023/03/17 06:12:39;;;;;;;4.40;1.90;;;4.60;1.00;;;;;;5074328;28;20448;-76
2023/03/17 06:15:08;;;;;;;1.50;1.40;;;4.60;1.00;;;;;;5073266;28;20475;-76
2023/03/17 06:17:35;;;;;;;3.57;1.40;;;4.80;1.00;;;;;;5074069;28;20445;-76
2023/03/17 06:20:04;;;;;;;1.70;1.20;;;4.90;99.90;;;;;;5073283;28;20823;-77
2023/03/17 06:22:32;;;;;;;1.53;1.30;;;4.80;99.90;;;;;;5073962;28;20514;-76
2023/03/17 06:24:59;;;;;;;1.23;1.13;;;4.70;99.90;;;;;;5072534;28;20503;-76
2023/03/17 06:27:26;;;;;;;11.70;2.23;;;4.90;99.90;;;;;;5073877;28;20444;-76
2023/03/17 06:29:53;;;;;;;2.90;1.33;;;4.90;99.90;;;;;;5073396;28;20448;-76
2023/03/17 06:32:20;;;;;;;1.83;1.43;;;5.00;99.90;;;;;;5073840;28;20484;-75
2023/03/17 06:34:47;;;;;;;2.90;2.27;;;5.30;93.30;;;;;;5073810;28;20451;-76
2023/03/17 06:37:14;;;;;;;3.10;1.63;;;5.10;44.50;;;;;;5073126;28;20451;-77
2023/03/17 06:39:42;;;;;;;3.83;2.20;;;5.20;52.30;;;;;;5073764;28;20800;-77
2023/03/17 06:42:09;;;;;;;3.17;1.63;;;5.30;4.50;;;;;;5072954;28;20437;-76
2023/03/17 06:44:36;;;;;;;1.70;1.50;;;5.50;1.00;;;;;;5073689;28;20500;-77
2023/03/17 06:47:03;;;;;;;2.93;1.90;;;5.60;1.00;;;;;;5072196;28;20952;-76
2023/03/17 06:49:30;;;;;;;4.63;2.40;;;5.80;1.00;;;;;;5073003;28;20449;-76
2023/03/17 06:51:57;;;;;;;2.93;1.93;;;5.90;1.00;;;;;;5072745;28;20909;-76
2023/03/17 06:54:24;;;;;;;4.30;1.90;;;6.00;1.00;;;;;;5073325;28;20453;-76
2023/03/17 06:56:53;;;;;;;1.70;1.60;;;6.00;1.00;;;;;;5072467;28;20437;-75
2023/03/17 06:59:21;;;;;;;2.23;2.03;;;6.20;1.00;;;;;;5060164;28;20456;-75
2023/03/17 07:01:49;;;;;;;2.50;1.30;;;6.30;1.00;;;;;;5073023;28;20443;-76
2023/03/17 07:04:16;;;;;;;1.90;1.80;;;6.40;1.00;;;;;;5072940;28;20563;-77
2023/03/17 07:06:43;;;;;;;2.03;1.83;;;6.40;1.00;;;;;;5072734;28;20772;-76
2023/03/17 07:09:10;;;;;;;3.00;2.53;;;6.50;1.00;;;;;;5072345;28;20453;-76
2023/03/17 07:11:37;;;;;;;5.63;2.67;;;6.60;1.00;;;;;;5073027;28;20442;-77
2023/03/17 07:14:06;;;;;;;5.43;2.73;;;6.70;1.00;;;;;;5072531;28;20450;-77
2023/03/17 07:16:33;;;;;;;1.97;1.77;;;6.80;99.90;;;;;;5072107;28;20441;-77
2023/03/17 07:19:01;;;;;;;3.23;2.10;;;6.90;99.90;;;;;;5072341;28;20453;-77
2023/03/17 07:21:28;;;;;;;2.37;1.70;;;6.90;99.90;;;;;;5072967;28;20445;-77
2023/03/17 07:23:55;;;;;;;1.87;1.67;;;7.00;99.90;;;;;;5072381;28;20473;-77
2023/03/17 07:26:22;;;;;;;1.93;1.57;;;7.10;99.90;;;;;;5072406;28;20429;-76
2023/03/17 07:28:48;;;;;;;8.60;2.10;;;7.20;99.90;;;;;;5072688;28;20445;-76
2023/03/17 07:31:17;;;;;;;3.80;2.30;;;7.30;99.90;;;;;;5072826;28;20766;-77
2023/03/17 07:33:44;;;;;;;3.20;2.20;;;7.40;99.90;;;;;;5072245;28;20917;-77
2023/03/17 07:36:10;;;;;;;3.40;2.20;;;7.50;99.90;;;;;;5071377;28;20462;-77
2023/03/17 07:38:37;;;;;;;2.17;1.97;;;7.60;99.90;;;;;;5072786;28;20465;-77
2023/03/17 07:41:08;;;;;;;4.07;2.47;;;7.60;99.90;;;;;;5071672;28;20444;-77
2023/03/17 07:43:35;;;;;;;5.13;2.30;;;7.80;99.90;;;;;;5072442;28;20503;-77
2023/03/17 07:46:02;;;;;;;6.07;2.30;;;7.70;99.90;;;;;;5071306;28;20461;-77
2023/03/17 07:48:32;;;;;;;2.17;1.80;;;7.80;99.90;;;;;;5072489;28;20532;-77
2023/03/17 07:50:59;;;;;;;2.90;2.47;;;7.80;99.90;;;;;;5071551;28;20473;-77
2023/03/17 07:53:26;;;;;;;4.43;3.03;;;7.90;99.90;;;;;;5072105;28;20445;-76
2023/03/17 07:55:53;;;;;;;4.40;2.57;;;7.90;99.90;;;;;;5071048;28;20445;-77
2023/03/17 07:58:20;;;;;;;5.80;2.90;;;8.00;99.90;;;;;;5072128;28;20909;-75
2023/03/17 08:00:48;;;;;;;4.40;2.30;;;8.00;99.90;;;;;;5072008;28;20532;-77
2023/03/17 08:03:15;;;;;;;4.20;2.83;;;8.20;99.90;;;;;;5072363;28;22428;-77
2023/03/17 08:05:44;;;;;;;4.30;3.47;;;;;;;;;;5071413;28;20441;-77
2023/03/17 08:08:11;;;;;;;3.97;3.03;;;;;;;;;;5071395;28;20445;-76
2023/03/17 08:10:38;;;;;;;2.90;2.23;;;8.30;99.90;;;;;;5071594;28;20938;-77
2023/03/17 08:13:06;;;;;;;3.50;3.20;;;8.70;99.90;;;;;;5071001;28;20437;-76
2023/03/17 08:15:33;;;;;;;2.77;2.57;;;8.80;99.90;;;;;;5071458;28;20651;-76
2023/03/17 08:18:00;;;;;;;3.97;2.43;;;8.80;99.90;;;;;;5071200;28;20532;-77
2023/03/17 08:20:27;;;;;;;4.37;3.13;;;8.80;99.90;;;;;;5071171;28;20925;-77
2023/03/17 08:22:55;;;;;;;4.93;3.00;;;9.00;99.90;;;;;;5071159;28;20441;-76
2023/03/17 08:25:23;;;;;;;4.50;3.30;;;9.10;99.90;;;;;;5071468;28;20477;-77
2023/03/17 08:27:50;;;;;;;5.70;3.50;;;9.10;99.90;;;;;;5071614;28;20456;-73
2023/03/17 08:30:19;;;;;;;5.93;3.17;;;9.20;99.90;;;;;;5072068;28;20446;-77
2023/03/17 08:32:46;;;;;;;4.37;3.30;;;;;;;;;;5071742;28;20476;-77
2023/03/17 08:35:14;;;;;;;4.23;3.00;;;;;;;;;;5070741;28;20456;-77
2023/03/17 08:37:42;;;;;;;3.37;3.07;;;;;;;;;;5072054;28;20476;-77
2023/03/17 08:40:11;;;;;;;4.43;3.43;;;;;;;;;;5074694;28;20438;-76
2023/03/17 08:42:38;;;;;;;4.40;3.47;;;;;;;;;;5085338;28;20464;-77
2023/03/17 08:45:06;;;;;;;5.60;3.70;;;;;;;;;;5086128;28;20556;-77
2023/03/17 08:47:33;;;;;;;3.57;2.80;;;;;;;;;;5090341;28;20438;-76
2023/03/17 08:50:01;;;;;;;4.23;3.13;;;;;;;;;;5091376;28;20452;-76
2023/03/17 08:52:28;;;;;;;3.30;2.70;;;;;;;;;;5088842;28;20442;-76
2023/03/17 08:54:55;;;;;;;4.53;3.50;;;;;;;;;;5090292;28;20437;-76
2023/03/17 08:57:24;;;;;;;3.97;2.80;;;;;;;;;;5088822;28;20441;-75
2023/03/17 08:59:51;;;;;;;3.40;2.97;;;;;;;;;;5086799;28;20502;-75
2023/03/17 09:02:19;;;;;;;3.80;2.90;;;;;;;;;;5083718;28;20433;-76
2023/03/17 09:04:47;;;;;;;4.13;2.83;;;;;;;;;;5076961;28;21000;-77
2023/03/17 09:07:14;;;;;;;2.90;2.10;;;;;;;;;;5072710;28;20441;-76
2023/03/17 09:09:41;;;;;;;4.03;1.80;;;;;;;;;;5071934;28;20450;-77
2023/03/17 09:12:08;;;;;;;2.90;2.10;;;;;;;;;;5071147;28;20476;-77
2023/03/17 09:14:38;;;;;;;1.77;1.23;;;;;;;;;;5071537;28;20449;-77
2023/03/17 09:17:06;;;;;;;1.33;1.23;;;;;;;;;;5057159;28;20835;-76
2023/03/17 09:19:34;;;;;;;2.10;1.40;;;;;;;;;;5071156;28;20441;-76
2023/03/17 09:22:01;;;;;;;1.43;0.80;;;;;;;;;;5070458;28;20450;-77
2023/03/17 09:24:29;;;;;;;1.97;1.40;;;;;;;;;;5071139;28;20481;-77
2023/03/17 09:26:58;;;;;;;1.97;0.90;;;;;;;;;;5070404;28;20437;-77
2023/03/17 09:29:26;;;;;;;1.20;1.10;;;;;;;;;;5071076;28;20571;-77
2023/03/17 09:31:55;;;;;;;1.67;1.00;;;;;;;;;;5070493;28;20889;-77
2023/03/17 09:34:23;;;;;;;1.13;1.03;;;;;;;;;;5070633;28;20456;-74
2023/03/17 09:36:51;;;;;;;2.53;1.20;;;;;;;;;;5070011;28;20527;-72
2023/03/17 09:39:20;;;;;;;0.70;0.60;;;;;;;;;;5070720;28;20442;-75
2023/03/17 09:41:55;;;;;;;2.00;1.47;;;;;;;;;;5071111;28;20460;-75
2023/03/17 09:44:29;;;;;;;0.90;0.70;;;;;;;;;;5070609;28;20480;-74
2023/03/17 09:47:03;;;;;;;2.63;1.40;;;;;;;;;;5069550;28;20465;-74
2023/03/17 09:49:31;;;;;;;0.93;0.80;;;;;;;;;;5070950;28;20775;-74
2023/03/17 09:51:58;;;;;;;1.63;1.10;;;;;;;;;;5070166;28;20437;-74
2023/03/17 09:54:27;;;;;;;2.27;1.03;;;;;;;;;;5070579;28;20519;-75
2023/03/17 09:56:57;;;;;;;1.47;0.90;;;;;;;;;;5069874;28;20437;-76
2023/03/17 09:59:30;;;;;;;1.77;0.90;;;;;;;;;;5060426;28;20434;-77
2023/03/17 10:01:57;;;;;;;0.97;0.77;;;;;;;;;;5073705;28;20433;-75
2023/03/17 10:04:26;;;;;;;1.37;0.80;;;;;;;;;;5073902;28;20477;-74
2023/03/17 10:06:58;;;;;;;3.50;1.00;;;;;;;;;;5073251;28;20449;-74
2023/03/17 10:09:30;;;;;;;1.20;0.90;;;;;;;;;;5074066;28;20448;-75
2023/03/17 10:12:02;;;;;;;1.30;0.90;;;;;;;;;;5073649;28;20429;-74
2023/03/17 10:14:38;;;;;;;2.00;1.07;;;;;;;;;;5074334;28;20449;-75
2023/03/17 10:17:14;;;;;;;1.37;0.60;;;;;;;;;;5072874;28;20491;-75
2023/03/17 10:19:44;;;;;;;1.40;0.80;;;;;;;;;;5073973;28;20433;-75
2023/03/17 10:22:14;;;;;;;2.93;1.10;;;;;;;;;;5073620;28;20502;-75
2023/03/17 10:24:46;;;;;;;1.40;0.90;;;;;;;;;;5073953;28;20932;-75
2023/03/17 10:27:15;;;;;;;2.30;0.83;;;;;;;;;;5073447;28;20437;-76
2023/03/17 10:29:42;;;;;;;0.90;0.70;;;;;;;;;;5073858;28;20450;-75
2023/03/17 10:32:12;;;;;;;1.23;0.93;;;;;;;;;;5072970;28;20916;-75
2023/03/17 10:34:40;;;;;;;0.90;0.80;;;;;;;;;;5073647;28;20464;-75
2023/03/17 10:37:09;;;;;;;1.40;0.90;;;;;;;;;;5073112;28;20448;-75
2023/03/17 10:39:43;;;;;;;1.20;0.90;;;;;;;;;;5073387;28;20524;-75
2023/03/17 10:42:12;;;;;;;1.10;0.80;;;;;;;;;;5073102;28;20678;-75
2023/03/17 10:44:41;;;;;;;1.33;0.90;;;;;;;;;;5073208;28;20484;-75
2023/03/17 10:47:21;;;;;;;1.20;1.00;;;;;;;;;;5072751;28;20445;-75
2023/03/17 10:49:48;;;;;;;0.70;0.60;;;;;;;;;;5073430;28;20528;-75
2023/03/17 10:52:20;;;;;;;1.10;0.80;;;;;;;;;;5073329;28;20444;-76
2023/03/17 10:54:48;;;;;;;1.00;0.80;;;;;;;;;;5073032;28;20438;-77
2023/03/17 10:57:17;;;;;;;1.30;1.03;;;;;;;;;;5073160;28;20798;-76
2023/03/17 10:59:48;;;;;;;1.53;0.93;;;;;;;;;;5073023;28;20441;-76
2023/03/17 11:02:20;;;;;;;1.20;0.80;;;;;;;;;;5073847;28;20441;-75
2023/03/17 11:04:48;;;;;;;1.63;0.93;;;;;;;;;;5072553;28;20481;-76
2023/03/17 11:07:17;;;;;;;0.80;0.67;;;;;;;;;;5072975;28;20437;-76
2023/03/17 11:09:49;;;;;;;1.60;1.00;;;;;;;;;;5072468;28;20928;-76
2023/03/17 11:12:25;;;;;;;0.70;0.60;;;;;;;;;;5073421;28;20445;-75
2023/03/17 11:14:56;;;;;;;1.03;0.80;;;;;;;;;;5072150;28;20548;-76
2023/03/17 11:17:27;;;;;;;1.40;0.80;;;;;;;;;;5073113;28;20469;-76
2023/03/17 11:19:58;;;;;;;1.17;0.70;;;;;;;;;;5072213;28;20455;-76
2023/03/17 11:22:30;;;;;;;1.23;0.70;;;;;;;;;;5073020;28;20430;-76
2023/03/17 11:25:01;;;;;;;1.30;1.07;;;;;;;;;;5071922;28;20478;-75
2023/03/17 11:27:31;;;;;;;1.30;0.90;;;;;;;;;;5073029;28;20473;-76
2023/03/17 11:30:06;;;;;;;3.17;0.63;;;;;;;;;;5071912;28;20445;-76
2023/03/17 11:32:36;;;;;;;2.70;1.90;;;;;;;;;;5072442;28;20943;-76
2023/03/17 11:35:27;;;;;;;1.83;1.37;;;;;;;;;;5071866;28;20433;-76
2023/03/17 11:38:05;;;;;;;1.80;1.40;;;;;;;;;;5056803;28;20450;-76
2023/03/17 11:40:36;;;;;;;3.87;1.67;;;;;;;;;;5072446;28;20443;-76
2023/03/17 11:43:15;;;;;;;2.83;1.70;;;;;;;;;;5071693;28;20433;-76
2023/03/17 11:45:43;;;;;;;2.30;1.70;;;;;;;;;;5071951;28;20497;-76
2023/03/17 11:48:17;;;;;;;2.10;1.77;;;;;;;;;;5071635;28;20812;-76
2023/03/17 11:50:49;;;;;;;1.73;1.57;;;;;;;;;;5072040;28;20978;-75
2023/03/17 11:53:26;;;;;;;2.50;1.70;;;;;;;;;;5072283;28;20520;-76
2023/03/17 11:55:56;;;;;;;1.60;1.40;;;;;;;;;;5071455;28;20456;-75
2023/03/17 11:58:27;;;;;;;1.17;1.00;;;;;;;;;;5072062;28;20430;-75
2023/03/17 12:00:56;;;;;;;2.40;1.30;;;;;;;;;;5058902;28;20430;-75
2023/03/17 12:03:29;;;;;;;0.90;0.80;;;;;;;;;;5072127;28;20769;-75
2023/03/17 12:05:58;;;;;;;2.70;1.13;;;;;;;;;;5071099;28;20473;-75
2023/03/17 12:08:29;;;;;;;3.73;2.10;;;;;;;;;;5071936;28;20500;-76
2023/03/17 12:10:59;;;;;;;2.10;1.33;;;;;;;;;;5071421;28;20449;-74
2023/03/17 12:13:31;;;;;;;0.97;0.83;;;;;;;;;;5071628;28;20969;-75
2023/03/17 12:16:04;;;;;;;1.60;1.10;;;;;;;;;;5070774;28;20433;-75
2023/03/17 12:18:33;;;;;;;1.73;1.07;;;;;;;;;;5071894;28;20852;-75
2023/03/17 12:21:03;;;;;;;1.20;0.90;;;;;;;;;;5070502;28;20446;-75
2023/03/17 12:23:35;;;;;;;1.90;1.17;;;;;;;;;;5071776;28;20442;-75
2023/03/17 12:26:06;;;;;;;6.77;1.47;;;;;;;;;;5070775;28;20795;-74
2023/03/17 12:28:37;;;;;;;1.17;1.03;;;;;;;;;;5071686;28;20929;-75
2023/03/17 12:31:06;;;;;;;1.77;0.97;;;;;;;;;;5070893;28;20472;-75
2023/03/17 12:33:38;;;;;;;1.33;1.23;;;;;;;;;;5071424;28;20457;-75
2023/03/17 12:36:06;;;;;;;1.10;0.90;;;;;;;;;;5070563;28;20478;-75
2023/03/17 12:38:36;;;;;;;0.70;0.70;;;;;;;;;;5071391;28;20449;-75
2023/03/17 12:41:21;;;;;;;1.03;0.70;;;;;;;;;;5070735;28;20434;-75
2023/03/17 12:43:55;;;;;;;1.70;1.00;;;;;;;;;;5061669;28;20453;-75
2023/03/17 12:46:31;;;;;;;1.80;1.40;;;;;;;;;;5070982;28;20489;-75
2023/03/17 12:49:05;;;;;;;1.23;0.73;;;;;;;;;;5070652;28;20443;-75
2023/03/17 12:51:43;;;;;;;1.30;0.90;;;;;;;;;;5071304;28;20786;-76
2023/03/17 12:54:13;;;;;;;1.30;0.90;;;;;;;;;;5070975;28;20702;-76
2023/03/17 12:56:44;;;;;;;1.80;1.50;;;;;;;;;;5071077;28;20848;-75
2023/03/17 12:59:16;;;;;;;1.30;1.20;;;;;;;;;;5070831;28;20528;-75
2023/03/17 13:01:45;;;;;;;1.07;0.97;;;;;;;;;;5071299;28;20425;-75
2023/03/17 13:04:22;;;;;;;1.70;1.17;;;;;;;;;;5070887;28;20459;-75
2023/03/17 13:06:55;;;;;;;1.20;0.80;;;;;;;;;;5070771;28;20469;-76
2023/03/17 13:09:30;;;;;;;1.10;0.90;;;;;;;;;;5071379;28;20448;-75
2023/03/17 13:11:57;;;;;;;1.10;0.70;;;;;;;;;;5070587;28;20449;-75
2023/03/17 13:14:27;;;;;;;2.00;1.60;;;;;;;;;;5071343;28;20445;-75
2023/03/17 13:17:04;;;;;;;1.40;1.23;;;;;;;;;;5070613;28;20441;-75
2023/03/17 13:19:32;;;;;;;1.33;0.90;;;;;;;;;;5071062;28;20437;-75
2023/03/17 13:22:14;;;;;;;1.80;1.10;;;;;;;;;;5070458;28;20445;-75
2023/03/17 13:24:47;;;;;;;1.63;1.20;;;;;;;;;;5069899;28;20449;-75
2023/03/17 13:27:16;;;;;;;1.63;0.90;;;;;;;;;;5070454;28;20448;-75
2023/03/17 13:29:48;;;;;;;1.73;1.37;;;;;;;;;;5070942;28;20449;-75
2023/03/17 13:32:39;;;;;;;1.77;1.27;;;;;;;;;;5070966;28;20442;-75
2023/03/17 13:35:24;;;;;;;2.30;1.00;;;;;;;;;;5058871;28;20487;-75
2023/03/17 13:38:04;;;;;;;1.10;0.80;;;;;;;;;;5074054;28;20429;-72
2023/03/17 13:40:36;;;;;;;2.07;1.13;;;;;;;;;;5074978;28;20486;-75
2023/03/17 13:43:10;;;;;;;1.43;0.80;;;;;;;;;;5074601;28;20442;-75
2023/03/17 13:45:40;;;;;;;1.97;1.10;;;;;;;;;;5074365;28;20880;-75
2023/03/17 13:48:26;;;;;;;0.90;0.80;;;;;;;;;;5073906;28;20492;-75